Terminal Aerodrome Forecast
Issued by NWS Charleston, SC

Home | Current Version | Previous Version | Text Only | Print | Product List | Glossary On
Versions: 1 2 3 4 5 6 7 8 9 10 11 12 13 14 15 16 17 18 19 20 21 22 23 24
896
FTUS42 KCHS 291529 AAC
TAFCHS
TAF AMD
KCHS 291529Z 2915/3012 20012G20KT 6SM -RA BKN008 OVC025
     FM291630 20012G20KT P6SM -RA BKN010 OVC025
     FM300300 28009KT P6SM -SHRA SCT006 BKN012=

USA.gov is the U.S. government's official web portal to all federal, state and local government web resources and services.